Time;durP1;ratioP1;P1;durP2;ratioP2;P2;SDS_P1;SDS_P2;PMS_P1;PMS_P2;Temp;Humidity;BMP_temperature;BMP_pressure;BME280_temperature;BME280_humidity;BME280_pressure;Samples;Min_cycle;Max_cycle;Signal;HPM_P1;HPM_P2
2024/01/25 00:01:37;;;;;;;6.93;2.00;;;;;;;6.00;86.50;99266.28;5064014;28;20205;-59
2024/01/25 00:04:05;;;;;;;4.90;1.83;;;;;;;6.01;86.90;99277.34;5060563;28;20220;-60
2024/01/25 00:06:34;;;;;;;4.40;1.80;;;;;;;6.01;87.20;99272.25;5066807;28;20668;-58
2024/01/25 00:09:04;;;;;;;5.33;1.90;;;;;;;6.00;86.42;99266.28;5065724;28;20240;-59
2024/01/25 00:11:35;;;;;;;7.00;2.20;;;;;;;6.00;86.30;99270.50;5064172;28;20209;-60
2024/01/25 00:14:04;;;;;;;7.43;2.23;;;;;;;5.97;86.25;99271.41;5065859;28;20725;-61
2024/01/25 00:16:32;;;;;;;5.53;1.83;;;;;;;5.95;86.53;99236.47;5069515;28;20208;-58
2024/01/25 00:19:00;;;;;;;3.57;1.80;;;;;;;5.94;85.65;99283.34;5065993;28;20755;-60
2024/01/25 00:21:28;;;;;;;6.93;1.70;;;;;;;5.90;85.77;99256.06;5061912;28;20292;-60
2024/01/25 00:23:57;;;;;;;3.67;1.33;;;;;;;5.92;85.33;99256.91;5060531;28;20205;-59
2024/01/25 00:26:25;;;;;;;7.77;2.20;;;;;;;5.90;85.59;99274.81;5057236;28;20816;-60
2024/01/25 00:28:53;;;;;;;4.60;1.37;;;;;;;5.89;85.50;99272.25;5067582;28;20209;-59
2024/01/25 00:31:21;;;;;;;3.50;1.30;;;;;;;5.85;85.32;99247.56;5060633;28;20249;-60
2024/01/25 00:33:49;;;;;;;4.63;1.57;;;;;;;5.85;85.66;99268.84;5071174;28;20235;-61
2024/01/25 00:36:18;;;;;;;2.63;1.20;;;;;;;5.82;86.08;99266.34;5069858;28;20296;-64
2024/01/25 00:38:46;;;;;;;4.40;2.00;;;;;;;5.77;86.50;99276.56;5070595;28;20201;-59
2024/01/25 00:41:18;;;;;;;3.40;1.30;;;;;;;5.75;87.79;99265.50;5071112;28;20208;-60
2024/01/25 00:43:47;;;;;;;5.50;1.37;;;;;;;5.73;88.18;99282.56;5062670;28;20197;-65
2024/01/25 00:46:15;;;;;;;3.57;1.50;;;;;;;5.70;88.11;99274.88;5073631;28;20681;-59
2024/01/25 00:48:44;;;;;;;3.07;1.30;;;;;;;5.61;89.53;99280.06;5073555;28;20239;-60
2024/01/25 00:51:16;;;;;;;7.37;2.83;;;;;;;5.57;89.88;99288.59;5067171;28;20723;-59
2024/01/25 00:53:45;;;;;;;6.67;1.50;;;;;;;5.54;90.82;99289.44;5070172;28;20731;-59
2024/01/25 00:56:13;;;;;;;5.20;1.50;;;;;;;5.50;91.81;99289.47;5065479;28;20212;-60
2024/01/25 00:58:43;;;;;;;3.70;1.33;;;;;;;5.48;92.37;99289.44;5078516;28;20201;-62
2024/01/25 01:01:12;;;;;;;7.00;1.83;;;;;;;5.45;93.02;99286.94;5069536;28;20804;-60
2024/01/25 01:03:40;;;;;;;3.43;1.50;;;;;;;5.41;93.44;99282.66;5072898;28;20197;-59
2024/01/25 01:06:09;;;;;;;4.43;1.60;;;;;;;5.37;94.22;99288.63;5070866;28;20197;-60
2024/01/25 01:08:38;;;;;;;8.60;2.00;;;;;;;5.35;94.55;99275.03;5072722;28;20202;-60
2024/01/25 01:11:06;;;;;;;4.17;1.90;;;;;;;5.30;94.54;99300.59;5075019;28;20209;-60
2024/01/25 01:13:34;;;;;;;5.20;1.90;;;;;;;5.28;94.68;99283.56;5075607;28;20671;-59
2024/01/25 01:16:04;;;;;;;5.77;1.97;;;;;;;5.25;95.00;99291.22;5065887;28;20310;-59
2024/01/25 01:18:32;;;;;;;6.90;2.17;;;;;;;5.24;95.79;99282.72;5072802;28;20201;-60
2024/01/25 01:21:00;;;;;;;3.67;1.50;;;;;;;5.22;94.91;99284.41;5072166;28;20246;-59
2024/01/25 01:23:28;;;;;;;6.53;2.70;;;;;;;5.21;95.35;99277.63;5069415;28;20209;-59
2024/01/25 01:25:55;;;;;;;8.40;2.23;;;;;;;5.20;95.25;99270.81;5073262;28;20212;-60
2024/01/25 01:28:23;;;;;;;7.03;2.20;;;;;;;5.22;94.88;99274.19;5071192;28;20266;-64
2024/01/25 01:30:53;;;;;;;9.27;2.83;;;;;;;5.24;94.22;99272.50;5071104;28;20658;-59
2024/01/25 01:33:23;;;;;;;7.13;2.17;;;;;;;5.27;93.96;99277.63;5064671;28;20232;-61
2024/01/25 01:35:51;;;;;;;6.67;2.00;;;;;;;5.30;93.78;99266.50;5064459;28;20208;-61
2024/01/25 01:38:19;;;;;;;6.43;2.20;;;;;;;5.31;93.21;99284.41;5072167;28;20198;-60
2024/01/25 01:40:47;;;;;;;7.63;1.90;;;;;;;5.32;93.28;99286.09;5073215;28;20212;-61
2024/01/25 01:43:19;;;;;;;6.77;1.90;;;;;;;5.33;93.67;99292.91;5069419;28;20211;-59
2024/01/25 01:45:47;;;;;;;6.33;2.13;;;;;;;5.31;93.80;99292.06;5071012;28;20688;-60
2024/01/25 01:48:15;;;;;;;8.70;2.40;;;;;;;5.29;94.12;99290.38;5061303;28;20201;-60
2024/01/25 01:50:45;;;;;;;10.10;2.10;;;;;;;5.25;94.53;99279.31;5066653;28;20230;-60
2024/01/25 01:53:14;;;;;;;10.83;2.30;;;;;;;5.26;94.05;99285.25;5069002;28;20236;-61
2024/01/25 01:55:42;;;;;;;6.03;2.47;;;;;;;5.25;93.96;99281.84;5070462;28;20711;-59
2024/01/25 01:58:10;;;;;;;5.87;2.10;;;;;;;5.25;93.44;99281.84;5072350;28;20235;-60
2024/01/25 02:00:39;;;;;;;8.73;2.10;;;;;;;5.26;92.92;99265.69;5071981;28;20292;-61
2024/01/25 02:03:07;;;;;;;5.13;1.80;;;;;;;5.26;92.99;99275.88;5063551;28;20240;-60
2024/01/25 02:05:35;;;;;;;8.73;2.40;;;;;;;5.28;92.52;99270.78;5072063;28;20208;-59
2024/01/25 02:08:06;;;;;;;6.10;2.00;;;;;;;5.29;92.70;99270.78;5071252;28;20296;-59
2024/01/25 02:10:34;;;;;;;5.37;1.67;;;;;;;5.29;91.96;99268.22;5071482;28;20676;-59
2024/01/25 02:13:02;;;;;;;7.73;2.23;;;;;;;5.32;92.12;99275.88;5071319;28;20243;-60
2024/01/25 02:15:30;;;;;;;9.43;2.33;;;;;;;5.34;92.60;99273.34;5064189;28;20352;-59
2024/01/25 02:17:58;;;;;;;7.70;2.10;;;;;;;5.35;91.51;99271.63;5063629;28;20280;-59
2024/01/25 02:20:26;;;;;;;6.23;1.67;;;;;;;5.36;91.72;99278.44;5059869;28;20205;-59
2024/01/25 02:22:56;;;;;;;5.33;1.93;;;;;;;5.36;91.47;99270.78;5064280;28;20680;-60
2024/01/25 02:25:24;;;;;;;7.97;2.00;;;;;;;5.35;90.81;99276.75;5069765;28;20194;-59
2024/01/25 02:27:52;;;;;;;7.87;1.80;;;;;;;5.37;91.12;99285.22;5065943;28;20202;-59
2024/01/25 02:30:20;;;;;;;7.67;2.27;;;;;;;5.38;91.42;99284.41;5062040;28;20274;-59
2024/01/25 02:32:48;;;;;;;4.73;1.80;;;;;;;5.40;91.21;99277.56;5067894;28;20728;-59
2024/01/25 02:35:16;;;;;;;6.03;2.00;;;;;;;5.38;91.38;99304.84;5071397;28;20202;-60
2024/01/25 02:37:44;;;;;;;9.70;2.50;;;;;;;5.36;91.98;99296.31;5067909;28;20205;-60
2024/01/25 02:40:14;;;;;;;10.87;2.90;;;;;;;5.34;91.79;99288.66;5055174;28;20226;-61
2024/01/25 02:42:42;;;;;;;8.50;2.53;;;;;;;5.33;92.50;99303.13;5069533;28;20580;-59
2024/01/25 02:45:11;;;;;;;6.83;1.87;;;;;;;5.32;93.08;99298.03;5071319;28;20593;-59
2024/01/25 02:47:39;;;;;;;7.73;2.40;;;;;;;5.29;92.78;99296.31;5072526;28;20201;-59
2024/01/25 02:50:08;;;;;;;9.40;2.70;;;;;;;5.25;92.72;99292.06;5071652;28;20261;-60
2024/01/25 02:52:36;;;;;;;10.80;2.60;;;;;;;5.15;93.42;99282.72;5068196;28;20604;-60
2024/01/25 02:55:04;;;;;;;8.73;2.60;;;;;;;5.17;93.46;99298.91;5060020;28;20209;-60
2024/01/25 02:57:33;;;;;;;9.03;2.33;;;;;;;5.15;93.38;99287.00;5069163;28;20198;-60
2024/01/25 03:00:01;;;;;;;6.73;1.97;;;;;;;5.11;93.92;99291.25;5070415;28;20263;-59
2024/01/25 03:02:29;;;;;;;9.83;2.33;;;;;;;5.09;93.72;99287.88;5069586;28;20564;-59
2024/01/25 03:04:57;;;;;;;8.17;2.20;;;;;;;5.06;94.03;99296.38;5069393;28;20270;-59
2024/01/25 03:07:25;;;;;;;9.40;2.27;;;;;;;5.05;94.12;99289.56;5071285;28;20209;-59
2024/01/25 03:09:53;;;;;;;10.63;1.97;;;;;;;5.04;93.84;99295.53;5064108;28;20205;-60
2024/01/25 03:12:21;;;;;;;9.30;2.23;;;;;;;5.06;93.80;99313.41;5070067;28;20220;-60
2024/01/25 03:14:51;;;;;;;4.77;1.70;;;;;;;5.06;93.94;99300.63;5071445;28;20703;-59
2024/01/25 03:17:19;;;;;;;7.17;2.10;;;;;;;5.04;94.10;99299.78;5070540;28;20302;-58
2024/01/25 03:19:48;;;;;;;6.97;1.83;;;;;;;5.03;94.32;99314.25;5071515;28;20236;-59
2024/01/25 03:22:16;;;;;;;7.47;2.03;;;;;;;5.03;94.73;99303.19;5070282;28;20653;-60
2024/01/25 03:24:44;;;;;;;9.03;2.37;;;;;;;5.03;94.46;99304.03;5070590;28;20288;-59
2024/01/25 03:27:13;;;;;;;5.27;2.23;;;;;;;5.02;94.25;99302.34;5066562;28;20201;-57
2024/01/25 03:29:42;;;;;;;10.00;2.23;;;;;;;4.98;94.63;99305.75;5060462;28;20205;-59
2024/01/25 03:32:12;;;;;;;6.07;1.97;;;;;;;4.98;94.75;99320.22;5070321;28;20213;-60
2024/01/25 03:34:40;;;;;;;7.90;2.47;;;;;;;4.96;94.87;99312.53;5066654;28;20205;-60
2024/01/25 03:37:08;;;;;;;10.90;2.10;;;;;;;4.95;94.90;99307.44;5071201;28;20218;-59
2024/01/25 03:39:36;;;;;;;9.73;2.73;;;;;;;4.92;95.10;99312.56;5069002;28;20198;-58
2024/01/25 03:42:05;;;;;;;12.87;2.47;;;;;;;4.91;95.25;99314.25;5068443;28;20201;-58
2024/01/25 03:44:32;;;;;;;9.80;2.33;;;;;;;4.90;95.03;99311.69;5069675;28;20710;-59
2024/01/25 03:47:00;;;;;;;10.47;2.53;;;;;;;4.89;94.93;99315.94;5059331;28;20227;-61
2024/01/25 03:49:29;;;;;;;7.33;2.53;;;;;;;4.91;94.51;99318.53;5060032;28;20241;-60
2024/01/25 03:51:57;;;;;;;8.97;2.13;;;;;;;4.90;94.99;99316.78;5068972;28;20223;-60
2024/01/25 03:54:26;;;;;;;8.17;1.93;;;;;;;4.87;94.45;99312.56;5065095;28;20227;-59
2024/01/25 03:56:54;;;;;;;8.97;1.93;;;;;;;4.86;94.73;99305.78;5063960;28;20205;-59
2024/01/25 03:59:22;;;;;;;9.33;2.97;;;;;;;4.84;94.43;99295.53;5070392;28;20655;-59
2024/01/25 04:01:50;;;;;;;6.10;2.10;;;;;;;4.83;95.00;99306.59;5069137;28;20209;-60
2024/01/25 04:04:18;;;;;;;9.03;2.10;;;;;;;4.81;94.82;99299.78;5070772;28;20205;-60
2024/01/25 04:06:48;;;;;;;6.83;2.20;;;;;;;4.79;94.88;99288.75;5075637;28;20197;-59
2024/01/25 04:09:16;;;;;;;9.07;2.20;;;;;;;4.78;94.53;99294.69;5077076;28;20205;-59
2024/01/25 04:11:44;;;;;;;6.07;2.23;;;;;;;4.79;94.52;99301.50;5074922;28;20233;-59
2024/01/25 04:14:12;;;;;;;8.47;2.57;;;;;;;4.82;94.31;99293.84;5074603;28;20197;-58
2024/01/25 04:16:40;;;;;;;6.30;2.10;;;;;;;4.80;94.48;99311.72;5074531;28;20201;-60
2024/01/25 04:19:12;;;;;;;8.57;2.80;;;;;;;4.80;94.88;99318.53;5075123;28;20287;-60
2024/01/25 04:21:40;;;;;;;12.23;2.20;;;;;;;4.79;94.70;99315.13;5075015;28;20255;-58
2024/01/25 04:24:09;;;;;;;8.93;2.23;;;;;;;4.77;95.00;99310.84;5075368;28;20425;-60
2024/01/25 04:26:37;;;;;;;7.97;2.17;;;;;;;4.76;95.00;99324.47;5073952;28;20322;-60
2024/01/25 04:29:06;;;;;;;7.47;2.30;;;;;;;4.75;94.68;99317.66;5069587;28;20292;-58
2024/01/25 04:31:34;;;;;;;6.77;2.07;;;;;;;4.73;94.73;99327.88;5066671;28;20545;-60
2024/01/25 04:34:02;;;;;;;10.53;2.50;;;;;;;4.71;94.35;99331.25;5076319;28;20209;-60
2024/01/25 04:36:30;;;;;;;11.20;2.53;;;;;;;4.72;94.95;99326.19;5076271;28;20312;-64
2024/01/25 04:38:58;;;;;;;7.70;2.20;;;;;;;4.71;94.40;99324.44;5076811;28;20225;-61
2024/01/25 04:41:27;;;;;;;9.63;3.17;;;;;;;4.68;94.30;99316.81;5071330;28;20254;-61
2024/01/25 04:43:55;;;;;;;7.00;2.07;;;;;;;4.67;94.13;99315.09;5075955;28;20204;-58
2024/01/25 04:46:23;;;;;;;10.00;2.40;;;;;;;4.69;94.13;99322.78;5073401;28;20193;-59
2024/01/25 04:48:51;;;;;;;10.20;2.13;;;;;;;4.68;94.21;99334.69;5077102;28;20209;-59
2024/01/25 04:51:20;;;;;;;12.23;3.27;;;;;;;4.68;93.64;99326.19;5072741;28;20333;-59
2024/01/25 04:53:48;;;;;;;11.00;2.80;;;;;;;4.70;93.79;99324.47;5073748;28;20295;-60
2024/01/25 04:56:15;;;;;;;8.37;2.03;;;;;;;4.70;93.67;99330.41;5076740;28;20248;-59
2024/01/25 04:58:45;;;;;;;9.33;2.33;;;;;;;4.72;93.81;99338.09;5075327;28;20208;-59
2024/01/25 05:01:13;;;;;;;6.93;2.27;;;;;;;4.70;93.11;99334.66;5065637;28;20607;-60
2024/01/25 05:03:41;;;;;;;11.10;2.30;;;;;;;4.71;92.68;99337.22;5067051;28;20193;-60
2024/01/25 05:06:09;;;;;;;8.10;2.13;;;;;;;4.71;92.61;99337.22;5072394;28;20208;-59
2024/01/25 05:08:36;;;;;;;5.87;1.70;;;;;;;4.71;92.66;99341.47;5076797;28;20205;-60
2024/01/25 05:11:05;;;;;;;5.93;2.20;;;;;;;4.74;92.33;99346.56;5077009;28;20320;-60
2024/01/25 05:13:34;;;;;;;6.93;1.97;;;;;;;4.72;92.10;99343.19;5070822;28;20259;-60
2024/01/25 05:16:04;;;;;;;7.63;2.20;;;;;;;4.72;91.90;99349.16;5073464;28;20227;-59
2024/01/25 05:18:32;;;;;;;5.67;1.93;;;;;;;4.72;91.87;99340.63;5066314;28;20557;-60
2024/01/25 05:21:00;;;;;;;6.63;1.90;;;;;;;4.74;91.59;99344.03;5070809;28;20202;-60
2024/01/25 05:23:28;;;;;;;6.07;2.03;;;;;;;4.74;91.47;99326.16;5069751;28;20208;-61
2024/01/25 05:25:56;;;;;;;6.00;1.53;;;;;;;4.74;91.01;99347.44;5066740;28;20665;-60
2024/01/25 05:28:24;;;;;;;6.97;2.00;;;;;;;4.76;90.13;99350.00;5071634;28;20687;-59
2024/01/25 05:30:52;;;;;;;5.80;2.13;;;;;;;4.76;90.18;99350.84;5072898;28;20198;-60
2024/01/25 05:33:22;;;;;;;4.37;1.73;;;;;;;4.79;90.25;99363.63;5070351;28;20313;-60
2024/01/25 05:35:51;;;;;;;4.90;1.60;;;;;;;4.81;89.47;99356.78;5067102;28;20197;-61
2024/01/25 05:38:19;;;;;;;6.87;2.00;;;;;;;4.84;89.83;99348.28;5072892;28;20252;-60
2024/01/25 05:40:47;;;;;;;4.13;1.63;;;;;;;4.87;89.39;99355.09;5063469;28;20206;-60
2024/01/25 05:43:14;;;;;;;4.33;1.47;;;;;;;4.90;89.19;99355.09;5056086;28;20206;-59
2024/01/25 05:45:43;;;;;;;4.80;1.70;;;;;;;4.90;89.23;99345.75;5067282;28;20250;-60
2024/01/25 05:48:11;;;;;;;4.67;1.70;;;;;;;4.94;88.74;99361.91;5061073;28;20300;-61
2024/01/25 05:50:40;;;;;;;3.70;1.60;;;;;;;4.95;88.69;99358.50;5070819;28;20241;-60
2024/01/25 05:53:08;;;;;;;5.20;1.67;;;;;;;4.98;88.49;99364.47;5068813;28;20304;-61
2024/01/25 05:55:36;;;;;;;7.63;2.00;;;;;;;4.98;88.39;99359.34;5062813;28;20287;-60
2024/01/25 05:58:04;;;;;;;4.90;1.70;;;;;;;5.00;87.94;99380.63;5070303;28;20216;-60
2024/01/25 06:00:32;;;;;;;9.30;2.27;;;;;;;5.01;88.14;99378.94;5066411;28;20280;-60
2024/01/25 06:03:00;;;;;;;4.63;1.73;;;;;;;5.02;88.30;99383.19;5067169;28;20739;-60
2024/01/25 06:05:28;;;;;;;8.83;2.10;;;;;;;5.04;87.44;99378.91;5061338;28;20202;-59
2024/01/25 06:07:58;;;;;;;9.80;1.70;;;;;;;5.03;87.50;99390.84;5072007;28;20216;-59
2024/01/25 06:10:26;;;;;;;8.73;2.07;;;;;;;5.02;87.24;99380.63;5066476;28;20205;-60
2024/01/25 06:12:54;;;;;;;6.57;2.53;;;;;;;5.05;87.43;99389.16;5067404;28;20214;-59
2024/01/25 06:15:22;;;;;;;7.93;2.30;;;;;;;5.05;87.34;99394.25;5068087;28;20197;-60
2024/01/25 06:17:50;;;;;;;7.07;2.37;;;;;;;5.06;87.46;99400.22;5066258;28;20212;-59
2024/01/25 06:20:18;;;;;;;12.17;2.53;;;;;;;5.04;87.11;99401.91;5068562;28;20202;-59
2024/01/25 06:22:47;;;;;;;6.13;1.87;;;;;;;5.03;86.72;99398.50;5064461;28;20229;-60
2024/01/25 06:25:16;;;;;;;8.97;2.17;;;;;;;5.03;87.00;99390.00;5065304;28;20300;-58
2024/01/25 06:27:44;;;;;;;5.73;1.83;;;;;;;5.01;87.18;99382.34;5062696;28;20208;-63
2024/01/25 06:30:13;;;;;;;6.13;1.87;;;;;;;5.01;87.08;99401.91;5069036;28;20204;-60
2024/01/25 06:32:41;;;;;;;6.93;2.03;;;;;;;5.01;86.85;99400.22;5067808;28;20425;-60
2024/01/25 06:35:10;;;;;;;4.67;1.87;;;;;;;4.99;87.09;99398.50;5067642;28;20217;-59
2024/01/25 06:37:38;;;;;;;5.10;1.83;;;;;;;4.99;87.01;99388.28;5070564;28;20541;-60
2024/01/25 06:40:07;;;;;;;7.70;2.00;;;;;;;5.00;87.27;99395.09;5067293;28;20197;-60
2024/01/25 06:42:37;;;;;;;3.93;1.77;;;;;;;5.00;87.10;99393.38;5061076;28;20217;-62
2024/01/25 06:45:05;;;;;;;6.60;1.83;;;;;;;5.00;87.44;99401.03;5068116;28;20572;-60
2024/01/25 06:47:33;;;;;;;4.40;2.10;;;;;;;5.02;87.22;99401.06;5067329;28;20644;-63
2024/01/25 06:50:01;;;;;;;6.17;1.90;;;;;;;5.02;87.76;99404.47;5067156;28;20245;-61
2024/01/25 06:52:29;;;;;;;6.90;1.57;;;;;;;5.01;88.25;99396.81;5067882;28;20209;-60
2024/01/25 06:54:58;;;;;;;9.77;2.30;;;;;;;5.00;88.64;99406.16;5068984;28;20221;-60
2024/01/25 06:57:26;;;;;;;8.43;2.07;;;;;;;4.99;89.27;99409.56;5069630;28;20667;-60
2024/01/25 06:59:55;;;;;;;5.27;1.60;;;;;;;4.97;89.25;99400.19;5068736;28;20606;-58
2024/01/25 07:02:23;;;;;;;6.13;2.00;;;;;;;4.96;90.05;99418.91;5069847;28;20578;-58
2024/01/25 07:04:52;;;;;;;4.07;1.50;;;;;;;4.94;90.31;99400.22;5066874;28;20208;-58
2024/01/25 07:07:21;;;;;;;6.73;1.57;;;;;;;4.89;90.91;99414.66;5062369;28;20205;-58
2024/01/25 07:09:49;;;;;;;7.53;2.20;;;;;;;4.88;91.32;99425.72;5068890;28;20201;-60
2024/01/25 07:12:18;;;;;;;7.10;2.33;;;;;;;4.85;91.44;99422.31;5068292;28;20725;-60
2024/01/25 07:14:46;;;;;;;7.33;2.10;;;;;;;4.84;91.77;99427.41;5070557;28;20221;-57
2024/01/25 07:17:15;;;;;;;7.10;1.93;;;;;;;4.84;92.05;99435.06;5069991;28;20201;-58
2024/01/25 07:19:43;;;;;;;6.07;1.60;;;;;;;4.81;92.37;99427.41;5062350;28;20212;-59
2024/01/25 07:22:11;;;;;;;5.97;1.80;;;;;;;4.78;92.70;99422.28;5060978;28;20204;-61
2024/01/25 07:24:39;;;;;;;4.20;1.80;;;;;;;4.74;93.61;99434.19;5070334;28;20225;-62
2024/01/25 07:27:07;;;;;;;6.47;1.93;;;;;;;4.73;94.18;99429.09;5070255;28;20591;-60
2024/01/25 07:29:35;;;;;;;6.80;1.67;;;;;;;4.71;94.50;99431.63;5067530;28;20202;-60
2024/01/25 07:32:03;;;;;;;5.10;2.30;;;;;;;4.70;94.35;99436.75;5068069;28;20205;-60
2024/01/25 07:34:32;;;;;;;4.37;1.60;;;;;;;4.70;94.51;99427.38;5067537;28;20235;-58
2024/01/25 07:37:00;;;;;;;4.97;1.60;;;;;;;4.68;95.21;99431.66;5057376;28;20205;-57
2024/01/25 07:39:28;;;;;;;8.07;2.30;;;;;;;4.68;95.25;99439.31;5058981;28;20603;-58
2024/01/25 07:41:57;;;;;;;4.43;1.50;;;;;;;4.67;95.80;99437.56;5061138;28;20327;-58
2024/01/25 07:44:24;;;;;;;4.33;1.60;;;;;;;4.67;95.48;99434.19;5062384;28;20590;-57
2024/01/25 07:46:52;;;;;;;3.00;1.70;;;;;;;4.67;95.78;99435.03;5062546;28;20325;-58
2024/01/25 07:49:20;;;;;;;7.73;1.50;;;;;;;4.69;95.74;99438.44;5059189;28;20230;-58
2024/01/25 07:51:50;;;;;;;3.37;1.47;;;;;;;4.72;95.71;99435.91;5061312;28;20210;-56
2024/01/25 07:54:18;;;;;;;3.67;1.40;;;;;;;4.74;95.13;99421.44;5070304;28;20237;-57
2024/01/25 07:56:46;;;;;;;6.40;1.70;;;;;;;4.76;95.23;99437.63;5069500;28;20198;-57
2024/01/25 07:59:13;;;;;;;3.47;1.60;;;;;;;4.80;95.37;99448.69;5065824;28;20982;-59
2024/01/25 08:01:41;;;;;;;4.07;1.50;;;;;;;4.83;94.91;99439.34;5061999;28;20197;-58
2024/01/25 08:04:10;;;;;;;6.17;1.40;;;;;;;4.83;94.46;99443.59;5055085;28;20256;-57
2024/01/25 08:06:38;;;;;;;2.60;1.00;;;;;;;4.87;94.00;99452.09;5056177;28;20274;-58
2024/01/25 08:09:08;;;;;;;4.83;1.50;;;;;;;4.84;94.33;99440.19;5062319;28;20548;-56
2024/01/25 08:11:36;;;;;;;4.03;1.03;;;;;;;4.82;94.74;99437.63;5060290;28;20198;-58
2024/01/25 08:14:05;;;;;;;3.67;1.10;;;;;;;4.83;94.93;99446.97;5060182;28;20725;-58
2024/01/25 08:16:34;;;;;;;1.70;0.80;;;;;;;4.84;94.60;99450.38;5060653;28;20734;-60
2024/01/25 08:19:03;;;;;;;5.23;1.17;;;;;;;4.83;94.58;99439.34;5061260;28;20291;-58
2024/01/25 08:21:31;;;;;;;4.27;1.07;;;;;;;4.84;94.47;99451.22;5054007;28;20233;-56
2024/01/25 08:24:02;;;;;;;2.47;1.10;;;;;;;4.84;94.32;99450.38;5060714;28;20217;-57
2024/01/25 08:26:31;;;;;;;2.60;0.90;;;;;;;4.82;94.19;99447.84;5061427;28;20213;-58
2024/01/25 08:28:59;;;;;;;2.43;1.10;;;;;;;4.83;93.68;99454.63;5069026;28;20201;-57
2024/01/25 08:31:27;;;;;;;4.73;1.60;;;;;;;4.87;94.51;99469.97;5058097;28;20201;-56
2024/01/25 08:33:55;;;;;;;4.47;1.10;;;;;;;4.88;94.25;99464.00;5062831;28;20580;-55
2024/01/25 08:36:24;;;;;;;2.67;0.97;;;;;;;4.93;94.22;99465.69;5062355;28;20202;-58
2024/01/25 08:38:52;;;;;;;3.70;1.23;;;;;;;4.92;93.96;99468.25;5066839;28;20209;-57
2024/01/25 08:41:20;;;;;;;1.40;0.90;;;;;;;4.93;93.81;99452.09;5063870;28;20590;-57
2024/01/25 08:43:49;;;;;;;2.10;0.70;;;;;;;4.90;94.10;99467.41;5068321;28;20201;-57
2024/01/25 08:46:17;;;;;;;1.43;0.83;;;;;;;4.93;94.23;99475.91;5068071;28;20229;-56
2024/01/25 08:48:45;;;;;;;1.53;0.87;;;;;;;4.91;94.19;99476.78;5067244;28;20636;-56
2024/01/25 08:51:14;;;;;;;2.27;1.00;;;;;;;4.92;94.54;99465.72;5060956;28;20711;-54
2024/01/25 08:53:42;;;;;;;1.83;0.90;;;;;;;4.90;94.44;99477.59;5071441;28;20213;-55
2024/01/25 08:56:10;;;;;;;2.57;1.00;;;;;;;4.89;94.41;99488.69;5070160;28;20206;-55
2024/01/25 08:58:38;;;;;;;2.17;0.80;;;;;;;4.85;94.00;99488.66;5068731;28;20675;-58
2024/01/25 09:01:07;;;;;;;1.63;0.80;;;;;;;4.85;95.19;99493.78;5068328;28;20253;-56
2024/01/25 09:03:35;;;;;;;0.87;0.70;;;;;;;4.85;94.61;99503.97;5071232;28;20205;-51
2024/01/25 09:06:05;;;;;;;2.03;0.90;;;;;;;4.85;94.57;99501.44;5061620;28;20210;-54
2024/01/25 09:08:34;;;;;;;2.07;0.87;;;;;;;4.89;95.36;99504.84;5065428;28;20210;-60
2024/01/25 09:11:02;;;;;;;1.53;1.10;;;;;;;4.92;94.88;99514.22;5073019;28;20242;-53
2024/01/25 09:13:32;;;;;;;1.10;0.70;;;;;;;4.88;95.04;99527.81;5068512;28;20204;-55
2024/01/25 09:16:13;;;;;;;2.33;0.80;;;;;;;4.90;95.09;99537.19;5072847;28;20221;-56
2024/01/25 09:18:41;;;;;;;2.07;1.00;;;;;;;4.90;95.77;99554.19;5073153;28;20208;-59
2024/01/25 09:21:09;;;;;;;1.00;0.90;;;;;;;4.90;95.76;99537.19;5063136;28;20202;-56
2024/01/25 09:23:37;;;;;;;2.10;1.10;;;;;;;4.93;96.15;99536.34;5069826;28;20206;-58
2024/01/25 09:26:05;;;;;;;2.43;1.27;;;;;;;4.94;95.76;99543.16;5071881;28;20208;-57
2024/01/25 09:28:33;;;;;;;1.70;0.97;;;;;;;4.93;95.74;99538.88;5073935;28;20231;-55
2024/01/25 09:31:02;;;;;;;1.53;1.10;;;;;;;4.95;95.64;99544.88;5071103;28;20211;-56
2024/01/25 09:33:33;;;;;;;1.07;0.90;;;;;;;4.98;96.22;99567.84;5070899;28;20205;-55
2024/01/25 09:36:02;;;;;;;1.27;1.00;;;;;;;4.97;96.41;99548.25;5071899;28;20225;-58
2024/01/25 09:38:30;;;;;;;1.80;1.00;;;;;;;4.98;96.06;99545.72;5064477;28;20228;-58
2024/01/25 09:40:59;;;;;;;1.23;0.87;;;;;;;4.97;96.23;99545.69;5065476;28;20205;-57
2024/01/25 09:43:30;;;;;;;2.67;1.13;;;;;;;4.99;96.35;99557.63;5071038;28;20209;-57
2024/01/25 09:46:01;;;;;;;1.17;0.97;;;;;;;4.99;96.83;99567.00;5063101;28;20205;-58
2024/01/25 09:48:29;;;;;;;0.97;0.80;;;;;;;5.01;96.77;99585.75;5063577;28;20654;-57
2024/01/25 09:51:00;;;;;;;2.23;1.10;;;;;;;5.05;96.65;99574.69;5063889;28;20646;-56
2024/01/25 09:53:33;;;;;;;2.20;1.30;;;;;;;5.04;96.47;99573.84;5072809;28;20240;-62
2024/01/25 09:56:08;;;;;;;1.83;0.90;;;;;;;5.04;96.54;99575.50;5069545;28;20224;-58
2024/01/25 09:58:39;;;;;;;2.10;1.10;;;;;;;5.04;96.59;99578.06;5072122;28;20219;-58
2024/01/25 10:01:12;;;;;;;1.87;1.43;;;;;;;5.07;96.80;99586.59;5068405;28;20213;-56
2024/01/25 10:03:43;;;;;;;2.07;1.40;;;;;;;5.07;96.44;99573.81;5062135;28;20630;-56
2024/01/25 10:06:13;;;;;;;1.00;0.93;;;;;;;5.10;95.78;99585.75;5061397;28;20279;-56
2024/01/25 10:08:42;;;;;;;2.80;1.20;;;;;;;5.10;96.19;99583.19;5070255;28;20300;-57
2024/01/25 10:11:11;;;;;;;2.20;1.40;;;;;;;5.10;96.24;99603.63;5071303;28;20656;-56
2024/01/25 10:13:42;;;;;;;3.20;1.20;;;;;;;5.09;95.98;99604.50;5069897;28;20200;-58
2024/01/25 10:16:12;;;;;;;2.10;1.20;;;;;;;5.06;95.93;99607.88;5065821;28;20703;-57
2024/01/25 10:18:42;;;;;;;1.33;0.93;;;;;;;5.05;96.01;99601.06;5059991;28;20206;-59
2024/01/25 10:21:11;;;;;;;1.30;0.90;;;;;;;5.05;96.07;99602.78;5059310;28;20689;-56
2024/01/25 10:23:41;;;;;;;2.17;1.47;;;;;;;5.08;95.90;99606.19;5072444;28;20656;-61
2024/01/25 10:26:10;;;;;;;2.67;1.10;;;;;;;5.07;95.58;99608.72;5066501;28;20553;-56
2024/01/25 10:28:39;;;;;;;2.00;1.20;;;;;;;5.07;95.60;99601.06;5053039;28;20576;-57
2024/01/25 10:31:08;;;;;;;2.13;1.20;;;;;;;5.09;96.46;99604.50;5066140;28;20212;-57
2024/01/25 10:33:39;;;;;;;2.27;1.10;;;;;;;5.08;96.18;99587.44;5059945;28;20251;-56
2024/01/25 10:36:09;;;;;;;1.60;1.13;;;;;;;5.07;96.39;99601.06;5070598;28;20216;-56
2024/01/25 10:38:37;;;;;;;1.83;1.20;;;;;;;5.10;95.71;99616.41;5059221;28;20652;-56
2024/01/25 10:41:07;;;;;;;2.17;1.20;;;;;;;5.12;95.93;99608.72;5070711;28;20251;-55
2024/01/25 10:43:36;;;;;;;1.70;0.80;;;;;;;5.16;95.28;99603.66;5072050;28;20636;-55
2024/01/25 10:46:05;;;;;;;0.70;0.70;;;;;;;5.21;95.35;99622.41;5068838;28;20786;-54
2024/01/25 10:48:34;;;;;;;1.43;1.03;;;;;;;5.22;93.77;99605.38;5062716;28;20201;-57
2024/01/25 10:51:03;;;;;;;1.30;0.93;;;;;;;5.22;94.44;99618.97;5054570;28;20233;-56
2024/01/25 10:53:33;;;;;;;2.20;0.97;;;;;;;5.23;93.99;99628.38;5069057;28;20197;-57
2024/01/25 10:56:02;;;;;;;1.10;0.70;;;;;;;5.28;93.93;99628.38;5069992;28;20225;-61
2024/01/25 10:58:36;;;;;;;1.23;0.97;;;;;;;5.25;92.88;99624.09;5066210;28;20279;-58
2024/01/25 11:01:10;;;;;;;1.70;1.00;;;;;;;5.26;92.57;99628.34;5063531;28;20671;-55
2024/01/25 11:03:43;;;;;;;1.23;0.90;;;;;;;5.27;92.59;99629.25;5052915;28;20206;-57
2024/01/25 11:06:12;;;;;;;0.83;0.60;;;;;;;5.29;92.35;99633.47;5065148;28;20209;-58
2024/01/25 11:08:41;;;;;;;1.13;1.00;;;;;;;5.35;92.98;99639.47;5066975;28;20209;-57
2024/01/25 11:11:12;;;;;;;2.47;1.20;;;;;;;5.38;91.72;99642.06;5071218;28;20656;-57
2024/01/25 11:13:42;;;;;;;3.07;0.80;;;;;;;5.35;91.23;99622.44;5059514;28;20201;-57
2024/01/25 11:16:15;;;;;;;2.07;0.90;;;;;;;5.36;91.17;99644.56;5061907;28;20698;-57
2024/01/25 11:18:50;;;;;;;1.07;0.90;;;;;;;5.37;90.67;99625.84;5064396;28;20198;-56
2024/01/25 11:21:29;;;;;;;0.90;0.70;;;;;;;5.39;91.06;99643.75;5057486;28;20251;-56
2024/01/25 11:24:01;;;;;;;1.00;0.70;;;;;;;5.40;90.50;99650.56;5069678;28;20204;-55
2024/01/25 11:26:30;;;;;;;0.97;0.80;;;;;;;5.43;90.59;99655.69;5070669;28;20216;-59
2024/01/25 11:29:00;;;;;;;1.10;0.67;;;;;;;5.40;90.76;99645.44;5057702;28;20231;-56
2024/01/25 11:31:28;;;;;;;1.30;0.87;;;;;;;5.43;90.64;99663.34;5059857;28;20718;-57
2024/01/25 11:33:59;;;;;;;1.03;0.90;;;;;;;5.45;90.78;99665.06;5065876;28;20223;-56
2024/01/25 11:36:27;;;;;;;1.07;0.97;;;;;;;5.46;90.23;99665.91;5055956;28;20726;-56
2024/01/25 11:38:57;;;;;;;2.03;0.90;;;;;;;5.45;89.31;99664.19;5066391;28;20247;-56
2024/01/25 11:41:25;;;;;;;0.97;0.80;;;;;;;5.46;89.18;99665.91;5071055;28;20632;-55
2024/01/25 11:43:53;;;;;;;1.60;0.80;;;;;;;5.48;89.09;99670.16;5064635;28;20201;-56
2024/01/25 11:46:23;;;;;;;2.20;0.80;;;;;;;5.52;88.12;99659.13;5071257;28;20197;-59
2024/01/25 11:48:51;;;;;;;1.20;0.90;;;;;;;5.55;88.19;99671.03;5068649;28;20656;-56